sensor_id;sensor_type;location;lat;lon;timestamp;pressure;altitude;pressure_sealevel;temperature;humidity
22649;BME280;11491;41.942;24.220;2023-11-21T00:02:04;89743.75;;;1.75;81.05
22649;BME280;11491;41.942;24.220;2023-11-21T00:04:31;89746.09;;;1.90;79.54
22649;BME280;11491;41.942;24.220;2023-11-21T00:06:58;89743.56;;;1.85;78.96
22649;BME280;11491;41.942;24.220;2023-11-21T00:09:24;89750.03;;;1.79;79.42
22649;BME280;11491;41.942;24.220;2023-11-21T00:11:51;89740.63;;;1.73;79.38
22649;BME280;11491;41.942;24.220;2023-11-21T00:14:19;89733.63;;;1.55;80.31
22649;BME280;11491;41.942;24.220;2023-11-21T00:16:46;89722.09;;;1.50;80.96
22649;BME280;11491;41.942;24.220;2023-11-21T00:19:12;89735.56;;;1.63;81.19
22649;BME280;11491;41.942;24.220;2023-11-21T00:21:39;89738.09;;;1.68;80.42
22649;BME280;11491;41.942;24.220;2023-11-21T00:24:09;89735.97;;;1.70;79.73
22649;BME280;11491;41.942;24.220;2023-11-21T00:26:39;89729.91;;;1.69;78.99
22649;BME280;11491;41.942;24.220;2023-11-21T00:29:05;89725.03;;;1.35;80.56
22649;BME280;11491;41.942;24.220;2023-11-21T00:31:35;89720.25;;;1.37;80.96
22649;BME280;11491;41.942;24.220;2023-11-21T00:34:02;89723.44;;;1.34;80.72
22649;BME280;11491;41.942;24.220;2023-11-21T00:36:30;89723.06;;;1.27;81.25
22649;BME280;11491;41.942;24.220;2023-11-21T00:38:57;89717.72;;;1.32;81.98
22649;BME280;11491;41.942;24.220;2023-11-21T00:41:24;89731.06;;;1.36;82.10
22649;BME280;11491;41.942;24.220;2023-11-21T00:43:53;89731.28;;;1.39;81.59
22649;BME280;11491;41.942;24.220;2023-11-21T00:46:20;89734.97;;;1.38;81.79
22649;BME280;11491;41.942;24.220;2023-11-21T00:48:48;89724.06;;;1.45;81.62
22649;BME280;11491;41.942;24.220;2023-11-21T00:51:15;89731.84;;;1.50;81.32
22649;BME280;11491;41.942;24.220;2023-11-21T00:53:42;89726.38;;;1.46;80.67
22649;BME280;11491;41.942;24.220;2023-11-21T00:56:08;89722.88;;;1.37;81.58
22649;BME280;11491;41.942;24.220;2023-11-21T00:58:35;89722.28;;;1.40;81.89
22649;BME280;11491;41.942;24.220;2023-11-21T01:01:02;89717.03;;;1.40;81.71
22649;BME280;11491;41.942;24.220;2023-11-21T01:03:29;89715.28;;;1.49;81.52
22649;BME280;11491;41.942;24.220;2023-11-21T01:05:57;89720.94;;;1.57;81.26
22649;BME280;11491;41.942;24.220;2023-11-21T01:08:24;89719.94;;;1.53;81.18
22649;BME280;11491;41.942;24.220;2023-11-21T01:10:51;89722.31;;;1.54;81.65
22649;BME280;11491;41.942;24.220;2023-11-21T01:13:18;89724.81;;;1.45;81.37
22649;BME280;11491;41.942;24.220;2023-11-21T01:15:44;89729.59;;;1.43;80.58
22649;BME280;11491;41.942;24.220;2023-11-21T01:18:11;89726.97;;;1.43;80.35
22649;BME280;11491;41.942;24.220;2023-11-21T01:20:38;89724.06;;;1.45;79.82
22649;BME280;11491;41.942;24.220;2023-11-21T01:23:06;89709.22;;;1.35;79.79
22649;BME280;11491;41.942;24.220;2023-11-21T01:25:33;89718.75;;;1.31;80.73
22649;BME280;11491;41.942;24.220;2023-11-21T01:28:00;89718.75;;;1.31;80.29
22649;BME280;11491;41.942;24.220;2023-11-21T01:30:26;89714.09;;;1.28;80.48
22649;BME280;11491;41.942;24.220;2023-11-21T01:32:53;89716.22;;;1.26;81.29
22649;BME280;11491;41.942;24.220;2023-11-21T01:35:20;89714.66;;;1.25;81.17
22649;BME280;11491;41.942;24.220;2023-11-21T01:37:47;89706.28;;;1.23;81.24
22649;BME280;11491;41.942;24.220;2023-11-21T01:40:15;89704.13;;;1.25;81.30
22649;BME280;11491;41.942;24.220;2023-11-21T01:42:42;89703.75;;;1.18;81.14
22649;BME280;11491;41.942;24.220;2023-11-21T01:45:10;89699.06;;;1.15;81.40
22649;BME280;11491;41.942;24.220;2023-11-21T01:47:38;89699.06;;;1.15;81.55
22649;BME280;11491;41.942;24.220;2023-11-21T01:50:08;89703.63;;;1.09;81.37
22649;BME280;11491;41.942;24.220;2023-11-21T01:52:38;89694.72;;;0.77;82.59
22649;BME280;11491;41.942;24.220;2023-11-21T01:55:06;89702.59;;;0.77;83.48
22649;BME280;11491;41.942;24.220;2023-11-21T01:57:36;89691.59;;;0.89;83.06
22649;BME280;11491;41.942;24.220;2023-11-21T02:00:05;89686.16;;;0.99;82.44
22649;BME280;11491;41.942;24.220;2023-11-21T02:02:41;89684.09;;;0.96;82.17
22649;BME280;11491;41.942;24.220;2023-11-21T02:05:09;89674.84;;;0.85;82.61
22649;BME280;11491;41.942;24.220;2023-11-21T02:07:38;89685.19;;;0.95;82.64
22649;BME280;11491;41.942;24.220;2023-11-21T02:10:06;89663.91;;;0.92;81.85
22649;BME280;11491;41.942;24.220;2023-11-21T02:12:32;89663.91;;;0.78;83.29
22649;BME280;11491;41.942;24.220;2023-11-21T02:15:02;89671.13;;;0.86;83.51
22649;BME280;11491;41.942;24.220;2023-11-21T02:17:30;89652.69;;;0.86;82.42
22649;BME280;11491;41.942;24.220;2023-11-21T02:19:58;89656.50;;;0.80;82.91
22649;BME280;11491;41.942;24.220;2023-11-21T02:22:26;89671.25;;;0.95;82.55
22649;BME280;11491;41.942;24.220;2023-11-21T02:24:58;89668.31;;;0.96;82.34
22649;BME280;11491;41.942;24.220;2023-11-21T02:27:26;89669.56;;;0.99;82.00
22649;BME280;11491;41.942;24.220;2023-11-21T02:29:53;89662.53;;;0.94;82.84
22649;BME280;11491;41.942;24.220;2023-11-21T02:32:20;89656.31;;;0.90;82.98
22649;BME280;11491;41.942;24.220;2023-11-21T02:34:48;89660.00;;;0.89;83.43
22649;BME280;11491;41.942;24.220;2023-11-21T02:37:15;89667.81;;;0.94;82.29
22649;BME280;11491;41.942;24.220;2023-11-21T02:39:42;89665.56;;;0.88;82.62
22649;BME280;11491;41.942;24.220;2023-11-21T02:42:10;89651.25;;;0.80;82.99
22649;BME280;11491;41.942;24.220;2023-11-21T02:44:36;89648.50;;;0.85;82.09
22649;BME280;11491;41.942;24.220;2023-11-21T02:47:04;89659.81;;;0.85;82.40
22649;BME280;11491;41.942;24.220;2023-11-21T02:49:32;89665.28;;;0.89;82.39
22649;BME280;11491;41.942;24.220;2023-11-21T02:52:00;89660.00;;;0.89;82.32
22649;BME280;11491;41.942;24.220;2023-11-21T02:54:26;89659.91;;;0.94;82.27
22649;BME280;11491;41.942;24.220;2023-11-21T02:56:53;89661.19;;;0.83;82.62
22649;BME280;11491;41.942;24.220;2023-11-21T02:59:21;89648.13;;;0.92;82.35
22649;BME280;11491;41.942;24.220;2023-11-21T03:01:48;89663.72;;;0.88;81.84
22649;BME280;11491;41.942;24.220;2023-11-21T03:04:15;89654.75;;;0.89;82.25
22649;BME280;11491;41.942;24.220;2023-11-21T03:06:43;89657.47;;;0.84;82.33
22649;BME280;11491;41.942;24.220;2023-11-21T03:09:09;89652.38;;;0.74;82.61
22649;BME280;11491;41.942;24.220;2023-11-21T03:11:37;89657.88;;;0.91;83.35
22649;BME280;11491;41.942;24.220;2023-11-21T03:14:04;89658.28;;;0.98;83.04
22649;BME280;11491;41.942;24.220;2023-11-21T03:16:32;89658.28;;;0.98;82.58
22649;BME280;11491;41.942;24.220;2023-11-21T03:18:59;89648.22;;;1.00;82.47
22649;BME280;11491;41.942;24.220;2023-11-21T03:21:26;89651.44;;;0.97;82.76
22649;BME280;11491;41.942;24.220;2023-11-21T03:23:52;89652.63;;;1.05;82.54
22649;BME280;11491;41.942;24.220;2023-11-21T03:26:19;89654.66;;;0.94;83.48
22649;BME280;11491;41.942;24.220;2023-11-21T03:28:46;89646.19;;;0.97;83.95
22649;BME280;11491;41.942;24.220;2023-11-21T03:31:12;89645.97;;;0.80;85.27
22649;BME280;11491;41.942;24.220;2023-11-21T03:33:43;89659.03;;;0.85;85.17
22649;BME280;11491;41.942;24.220;2023-11-21T03:36:11;89659.03;;;0.85;85.22
22649;BME280;11491;41.942;24.220;2023-11-21T03:38:38;89657.88;;;0.91;85.77
22649;BME280;11491;41.942;24.220;2023-11-21T03:41:05;89666.47;;;1.11;85.20
22649;BME280;11491;41.942;24.220;2023-11-21T03:43:32;89675.25;;;1.20;84.37
22649;BME280;11491;41.942;24.220;2023-11-21T03:45:58;89680.53;;;1.20;84.34
22649;BME280;11491;41.942;24.220;2023-11-21T03:48:25;89672.72;;;1.28;84.31
22649;BME280;11491;41.942;24.220;2023-11-21T03:50:53;89670.56;;;1.31;84.31
22649;BME280;11491;41.942;24.220;2023-11-21T03:53:20;89650.88;;;1.28;83.61
22649;BME280;11491;41.942;24.220;2023-11-21T03:55:47;89665.47;;;1.34;83.84
22649;BME280;11491;41.942;24.220;2023-11-21T03:58:14;89670.97;;;1.38;83.87
22649;BME280;11491;41.942;24.220;2023-11-21T04:00:41;89669.81;;;1.30;83.74
22649;BME280;11491;41.942;24.220;2023-11-21T04:03:08;89666.66;;;1.28;83.96
22649;BME280;11491;41.942;24.220;2023-11-21T04:05:34;89662.00;;;1.25;84.04
22649;BME280;11491;41.942;24.220;2023-11-21T04:08:03;89667.53;;;1.23;83.86
22649;BME280;11491;41.942;24.220;2023-11-21T04:10:30;89661.41;;;1.28;84.11
22649;BME280;11491;41.942;24.220;2023-11-21T04:12:56;89665.47;;;1.34;83.35
22649;BME280;11491;41.942;24.220;2023-11-21T04:15:23;89664.53;;;1.30;83.30
22649;BME280;11491;41.942;24.220;2023-11-21T04:17:50;89658.78;;;1.28;83.99
22649;BME280;11491;41.942;24.220;2023-11-21T04:20:17;89663.94;;;1.33;83.98
22649;BME280;11491;41.942;24.220;2023-11-21T04:22:44;89663.94;;;1.33;83.46
22649;BME280;11491;41.942;24.220;2023-11-21T04:25:14;89667.75;;;1.27;83.86
22649;BME280;11491;41.942;24.220;2023-11-21T04:27:42;89671.25;;;1.36;83.57
22649;BME280;11491;41.942;24.220;2023-11-21T04:30:10;89664.03;;;1.28;83.96
22649;BME280;11491;41.942;24.220;2023-11-21T04:32:37;89656.91;;;1.28;83.50
22649;BME280;11491;41.942;24.220;2023-11-21T04:35:05;89663.34;;;1.36;83.46
22649;BME280;11491;41.942;24.220;2023-11-21T04:37:32;89661.41;;;1.28;83.20
22649;BME280;11491;41.942;24.220;2023-11-21T04:39:58;89668.81;;;1.26;83.31
22649;BME280;11491;41.942;24.220;2023-11-21T04:42:26;89669.41;;;1.23;82.85
22649;BME280;11491;41.942;24.220;2023-11-21T04:44:54;89663.34;;;1.08;83.32
22649;BME280;11491;41.942;24.220;2023-11-21T04:47:21;89668.22;;;1.15;84.24
22649;BME280;11491;41.942;24.220;2023-11-21T04:49:47;89667.25;;;1.25;83.22
22649;BME280;11491;41.942;24.220;2023-11-21T04:52:14;89656.50;;;0.94;84.56
22649;BME280;11491;41.942;24.220;2023-11-21T04:54:41;89668.22;;;1.01;84.45
22649;BME280;11491;41.942;24.220;2023-11-21T04:57:08;89662.31;;;0.77;85.84
22649;BME280;11491;41.942;24.220;2023-11-21T04:59:36;89658.06;;;0.81;86.15
22649;BME280;11491;41.942;24.220;2023-11-21T05:02:03;89658.34;;;0.79;85.45
22649;BME280;11491;41.942;24.220;2023-11-21T05:04:30;89648.78;;;0.83;85.25
22649;BME280;11491;41.942;24.220;2023-11-21T05:06:57;89661.97;;;0.97;84.79
22649;BME280;11491;41.942;24.220;2023-11-21T05:09:24;89664.13;;;0.95;84.77
22649;BME280;11491;41.942;24.220;2023-11-21T05:11:50;89659.44;;;0.92;85.48
22649;BME280;11491;41.942;24.220;2023-11-21T05:14:18;89662.53;;;0.94;85.43
22649;BME280;11491;41.942;24.220;2023-11-21T05:16:47;89662.31;;;0.77;86.33
22649;BME280;11491;41.942;24.220;2023-11-21T05:19:16;89672.13;;;0.90;85.53
22649;BME280;11491;41.942;24.220;2023-11-21T05:21:42;89670.72;;;0.79;86.04
22649;BME280;11491;41.942;24.220;2023-11-21T05:24:09;89681.06;;;0.89;85.51
22649;BME280;11491;41.942;24.220;2023-11-21T05:26:36;89680.69;;;0.96;85.80
22649;BME280;11491;41.942;24.220;2023-11-21T05:29:04;89679.44;;;1.07;85.53
22649;BME280;11491;41.942;24.220;2023-11-21T05:31:30;89680.97;;;0.94;85.66
22649;BME280;11491;41.942;24.220;2023-11-21T05:33:59;89682.47;;;1.00;85.54
22649;BME280;11491;41.942;24.220;2023-11-21T05:36:25;89689.69;;;1.08;85.69
22649;BME280;11491;41.942;24.220;2023-11-21T05:38:52;89689.38;;;1.24;84.53
22649;BME280;11491;41.942;24.220;2023-11-21T05:41:19;89683.53;;;1.13;84.56
22649;BME280;11491;41.942;24.220;2023-11-21T05:43:46;89684.81;;;1.16;85.11
22649;BME280;11491;41.942;24.220;2023-11-21T05:46:13;89678.94;;;1.19;85.15
22649;BME280;11491;41.942;24.220;2023-11-21T05:48:40;89670.50;;;1.22;84.84
22649;BME280;11491;41.942;24.220;2023-11-21T05:51:08;89677.22;;;1.28;84.96
22649;BME280;11491;41.942;24.220;2023-11-21T05:53:37;89680.50;;;1.34;85.32
22649;BME280;11491;41.942;24.220;2023-11-21T05:56:04;89663.44;;;1.45;84.59
22649;BME280;11491;41.942;24.220;2023-11-21T05:58:31;89672.50;;;1.39;85.16
22649;BME280;11491;41.942;24.220;2023-11-21T06:00:58;89662.19;;;1.42;86.26
22649;BME280;11491;41.942;24.220;2023-11-21T06:03:25;89663.03;;;1.51;85.71
22649;BME280;11491;41.942;24.220;2023-11-21T06:05:51;89660.78;;;1.59;86.62
22649;BME280;11491;41.942;24.220;2023-11-21T06:08:20;89671.72;;;1.66;87.11
22649;BME280;11491;41.942;24.220;2023-11-21T06:10:47;89668.97;;;1.71;87.59
22649;BME280;11491;41.942;24.220;2023-11-21T06:13:14;89663.13;;;1.74;88.20
22649;BME280;11491;41.942;24.220;2023-11-21T06:15:41;89662.31;;;1.87;88.02
22649;BME280;11491;41.942;24.220;2023-11-21T06:18:08;89637.56;;;1.61;89.11
22649;BME280;11491;41.942;24.220;2023-11-21T06:20:36;89665.75;;;1.74;89.80
22649;BME280;11491;41.942;24.220;2023-11-21T06:23:03;89663.31;;;1.78;89.58
22649;BME280;11491;41.942;24.220;2023-11-21T06:25:32;89667.09;;;1.85;89.54
22649;BME280;11491;41.942;24.220;2023-11-21T06:28:01;89668.34;;;2.02;89.70
22649;BME280;11491;41.942;24.220;2023-11-21T06:30:28;89669.44;;;2.23;89.66
22649;BME280;11491;41.942;24.220;2023-11-21T06:32:55;89650.97;;;2.46;88.57
22649;BME280;11491;41.942;24.220;2023-11-21T06:35:22;89645.81;;;2.63;88.19
22649;BME280;11491;41.942;24.220;2023-11-21T06:37:49;89649.28;;;2.72;87.87
22649;BME280;11491;41.942;24.220;2023-11-21T06:40:17;89631.63;;;2.82;87.33
22649;BME280;11491;41.942;24.220;2023-11-21T06:42:46;89635.44;;;2.98;86.65
22649;BME280;11491;41.942;24.220;2023-11-21T06:45:13;89632.56;;;3.08;87.34
22649;BME280;11491;41.942;24.220;2023-11-21T06:47:40;89644.09;;;3.21;87.02
22649;BME280;11491;41.942;24.220;2023-11-21T06:50:08;89645.56;;;3.36;87.70
22649;BME280;11491;41.942;24.220;2023-11-21T06:52:34;89641.38;;;3.43;87.49
22649;BME280;11491;41.942;24.220;2023-11-21T06:55:01;89647.75;;;3.42;86.59
22649;BME280;11491;41.942;24.220;2023-11-21T06:57:33;89652.25;;;3.42;86.64
22649;BME280;11491;41.942;24.220;2023-11-21T07:00:02;89640.31;;;3.53;86.95
22649;BME280;11491;41.942;24.220;2023-11-21T07:02:28;89648.63;;;3.78;86.30
22649;BME280;11491;41.942;24.220;2023-11-21T07:04:55;89643.63;;;3.85;86.01
22649;BME280;11491;41.942;24.220;2023-11-21T07:07:22;89633.88;;;3.94;86.37
22649;BME280;11491;41.942;24.220;2023-11-21T07:09:49;89647.97;;;3.72;86.83
22649;BME280;11491;41.942;24.220;2023-11-21T07:12:17;89641.94;;;3.89;87.17
22649;BME280;11491;41.942;24.220;2023-11-21T07:14:44;89640.56;;;4.09;86.68
22649;BME280;11491;41.942;24.220;2023-11-21T07:17:12;89644.47;;;4.29;86.04
22649;BME280;11491;41.942;24.220;2023-11-21T07:19:39;89634.81;;;4.50;86.29
22649;BME280;11491;41.942;24.220;2023-11-21T07:22:06;89629.50;;;4.68;85.81
22649;BME280;11491;41.942;24.220;2023-11-21T07:24:34;89636.66;;;4.76;85.45
22649;BME280;11491;41.942;24.220;2023-11-21T07:27:02;89626.03;;;4.93;85.72
22649;BME280;11491;41.942;24.220;2023-11-21T07:29:29;89636.63;;;4.93;84.75
22649;BME280;11491;41.942;24.220;2023-11-21T07:31:56;89635.81;;;5.10;84.90
22649;BME280;11491;41.942;24.220;2023-11-21T07:34:24;89631.88;;;5.25;84.76
22649;BME280;11491;41.942;24.220;2023-11-21T07:36:51;89636.47;;;5.46;84.13
22649;BME280;11491;41.942;24.220;2023-11-21T07:39:18;89643.44;;;5.59;83.58
22649;BME280;11491;41.942;24.220;2023-11-21T07:41:45;89629.16;;;5.72;83.66
22649;BME280;11491;41.942;24.220;2023-11-21T07:44:14;89644.06;;;5.86;82.40
22649;BME280;11491;41.942;24.220;2023-11-21T07:46:41;89629.72;;;5.87;82.80
22649;BME280;11491;41.942;24.220;2023-11-21T07:49:07;89628.44;;;5.93;82.58
22649;BME280;11491;41.942;24.220;2023-11-21T07:51:35;89622.19;;;6.18;81.85
22649;BME280;11491;41.942;24.220;2023-11-21T07:54:02;89630.63;;;6.62;79.76
22649;BME280;11491;41.942;24.220;2023-11-21T07:56:29;89617.84;;;7.22;78.55
22649;BME280;11491;41.942;24.220;2023-11-21T07:58:56;89620.09;;;7.45;77.11
22649;BME280;11491;41.942;24.220;2023-11-21T08:01:23;89617.66;;;7.40;76.91
22649;BME280;11491;41.942;24.220;2023-11-21T08:03:49;89611.59;;;7.64;76.71
22649;BME280;11491;41.942;24.220;2023-11-21T08:06:17;89614.47;;;7.95;70.96
22649;BME280;11491;41.942;24.220;2023-11-21T08:08:45;89608.31;;;8.32;66.22
22649;BME280;11491;41.942;24.220;2023-11-21T08:11:12;89611.53;;;8.50;65.79
22649;BME280;11491;41.942;24.220;2023-11-21T08:13:39;89618.78;;;8.77;63.09
22649;BME280;11491;41.942;24.220;2023-11-21T08:16:07;89627.19;;;9.36;58.98
22649;BME280;11491;41.942;24.220;2023-11-21T08:18:34;89621.00;;;9.95;59.07
22649;BME280;11491;41.942;24.220;2023-11-21T08:21:00;89618.31;;;10.27;57.34
22649;BME280;11491;41.942;24.220;2023-11-21T08:23:28;89636.50;;;10.37;56.08
22649;BME280;11491;41.942;24.220;2023-11-21T08:25:56;89630.63;;;10.16;55.58
22649;BME280;11491;41.942;24.220;2023-11-21T08:28:23;89633.22;;;10.28;54.11
22649;BME280;11491;41.942;24.220;2023-11-21T08:30:51;89632.00;;;10.76;52.83
22649;BME280;11491;41.942;24.220;2023-11-21T08:33:17;89633.75;;;10.69;53.22
22649;BME280;11491;41.942;24.220;2023-11-21T08:35:44;89639.81;;;10.66;52.61
22649;BME280;11491;41.942;24.220;2023-11-21T08:38:12;89614.31;;;10.72;53.80
22649;BME280;11491;41.942;24.220;2023-11-21T08:40:39;89602.66;;;10.99;53.24
22649;BME280;11491;41.942;24.220;2023-11-21T08:43:07;89620.69;;;10.83;52.34
22649;BME280;11491;41.942;24.220;2023-11-21T08:45:34;89620.22;;;10.62;53.14
22649;BME280;11491;41.942;24.220;2023-11-21T08:48:01;89614.94;;;10.65;53.30
22649;BME280;11491;41.942;24.220;2023-11-21T08:50:27;89602.19;;;10.39;53.54
22649;BME280;11491;41.942;24.220;2023-11-21T08:52:54;89609.84;;;10.41;54.57
22649;BME280;11491;41.942;24.220;2023-11-21T08:55:21;89606.94;;;10.30;54.06
22649;BME280;11491;41.942;24.220;2023-11-21T08:57:48;89603.56;;;10.33;53.77
22649;BME280;11491;41.942;24.220;2023-11-21T09:00:17;89604.38;;;10.33;54.68
22649;BME280;11491;41.942;24.220;2023-11-21T09:02:44;89608.53;;;10.50;55.14
22649;BME280;11491;41.942;24.220;2023-11-21T09:05:12;89594.63;;;10.80;53.70
22649;BME280;11491;41.942;24.220;2023-11-21T09:07:40;89588.38;;;10.92;53.44
22649;BME280;11491;41.942;24.220;2023-11-21T09:10:08;89589.00;;;11.05;53.53
22649;BME280;11491;41.942;24.220;2023-11-21T09:12:35;89576.34;;;10.82;52.93
22649;BME280;11491;41.942;24.220;2023-11-21T09:15:03;89573.66;;;10.82;53.89
22649;BME280;11491;41.942;24.220;2023-11-21T09:17:32;89567.31;;;10.90;53.51
22649;BME280;11491;41.942;24.220;2023-11-21T09:19:59;89579.41;;;11.23;51.64
22649;BME280;11491;41.942;24.220;2023-11-21T09:22:26;89561.53;;;11.96;49.88
22649;BME280;11491;41.942;24.220;2023-11-21T09:24:55;89566.00;;;12.42;49.29
22649;BME280;11491;41.942;24.220;2023-11-21T09:27:23;89562.19;;;11.90;49.40
22649;BME280;11491;41.942;24.220;2023-11-21T09:29:51;89557.06;;;11.81;49.25
22649;BME280;11491;41.942;24.220;2023-11-21T09:32:18;89556.81;;;12.13;48.21
22649;BME280;11491;41.942;24.220;2023-11-21T09:34:47;89552.38;;;12.54;47.70
22649;BME280;11491;41.942;24.220;2023-11-21T09:37:14;89555.50;;;13.20;46.68
22649;BME280;11491;41.942;24.220;2023-11-21T09:39:41;89553.78;;;13.05;45.72
22649;BME280;11491;41.942;24.220;2023-11-21T09:42:10;89535.03;;;12.75;47.16
22649;BME280;11491;41.942;24.220;2023-11-21T09:44:45;89554.91;;;12.13;47.56
22649;BME280;11491;41.942;24.220;2023-11-21T09:47:15;89540.63;;;11.82;48.80
22649;BME280;11491;41.942;24.220;2023-11-21T09:49:46;89545.03;;;11.71;49.29
22649;BME280;11491;41.942;24.220;2023-11-21T09:52:22;89539.56;;;11.64;49.07
22649;BME280;11491;41.942;24.220;2023-11-21T09:54:52;89535.66;;;11.58;49.56
22649;BME280;11491;41.942;24.220;2023-11-21T09:57:19;89538.81;;;11.40;49.92
22649;BME280;11491;41.942;24.220;2023-11-21T09:59:51;89531.97;;;11.66;49.34
22649;BME280;11491;41.942;24.220;2023-11-21T10:02:18;89539.09;;;11.81;49.03
22649;BME280;11491;41.942;24.220;2023-11-21T10:04:46;89537.94;;;11.82;49.14
22649;BME280;11491;41.942;24.220;2023-11-21T10:07:17;89536.34;;;12.01;49.20
22649;BME280;11491;41.942;24.220;2023-11-21T10:09:45;89530.41;;;11.65;49.44
22649;BME280;11491;41.942;24.220;2023-11-21T10:12:14;89517.91;;;11.96;49.12
22649;BME280;11491;41.942;24.220;2023-11-21T10:14:41;89524.50;;;12.28;50.15
22649;BME280;11491;41.942;24.220;2023-11-21T10:17:10;89522.31;;;12.38;47.81
22649;BME280;11491;41.942;24.220;2023-11-21T10:19:38;89517.06;;;12.45;47.70
22649;BME280;11491;41.942;24.220;2023-11-21T10:22:05;89518.53;;;13.06;47.29
22649;BME280;11491;41.942;24.220;2023-11-21T10:24:33;89522.50;;;13.20;46.40
22649;BME280;11491;41.942;24.220;2023-11-21T10:27:00;89517.16;;;13.20;47.74
22649;BME280;11491;41.942;24.220;2023-11-21T10:29:29;89516.75;;;12.84;46.94
22649;BME280;11491;41.942;24.220;2023-11-21T10:31:55;89515.72;;;12.92;46.60
22649;BME280;11491;41.942;24.220;2023-11-21T10:34:24;89508.22;;;12.75;46.75
22649;BME280;11491;41.942;24.220;2023-11-21T10:36:53;89515.47;;;13.04;47.52
22649;BME280;11491;41.942;24.220;2023-11-21T10:39:22;89512.72;;;13.34;46.88
22649;BME280;11491;41.942;24.220;2023-11-21T10:41:55;89508.38;;;13.64;47.22
22649;BME280;11491;41.942;24.220;2023-11-21T10:44:21;89521.13;;;13.74;45.72
22649;BME280;11491;41.942;24.220;2023-11-21T10:46:50;89506.00;;;13.18;46.42
22649;BME280;11491;41.942;24.220;2023-11-21T10:49:17;89503.53;;;12.68;48.03
22649;BME280;11491;41.942;24.220;2023-11-21T10:51:45;89505.00;;;12.32;48.46
22649;BME280;11491;41.942;24.220;2023-11-21T10:54:17;89505.09;;;12.12;49.23
22649;BME280;11491;41.942;24.220;2023-11-21T10:56:45;89502.13;;;12.17;49.64
22649;BME280;11491;41.942;24.220;2023-11-21T10:59:13;89490.75;;;11.74;49.56
22649;BME280;11491;41.942;24.220;2023-11-21T11:01:42;89484.88;;;11.88;50.87
22649;BME280;11491;41.942;24.220;2023-11-21T11:04:11;89479.00;;;11.82;49.45
22649;BME280;11491;41.942;24.220;2023-11-21T11:06:42;89477.56;;;11.62;49.67
22649;BME280;11491;41.942;24.220;2023-11-21T11:09:10;89469.19;;;11.63;49.80
22649;BME280;11491;41.942;24.220;2023-11-21T11:11:39;89455.00;;;11.36;50.41
22649;BME280;11491;41.942;24.220;2023-11-21T11:14:10;89454.03;;;11.25;50.07
22649;BME280;11491;41.942;24.220;2023-11-21T11:16:40;89440.28;;;11.23;50.14
22649;BME280;11491;41.942;24.220;2023-11-21T11:19:08;89434.09;;;11.19;50.79
22649;BME280;11491;41.942;24.220;2023-11-21T11:21:45;89428.56;;;11.08;50.90
22649;BME280;11491;41.942;24.220;2023-11-21T11:27:25;89403.81;;;11.15;50.92
22649;BME280;11491;41.942;24.220;2023-11-21T11:30:11;89391.81;;;11.05;51.07
22649;BME280;11491;41.942;24.220;2023-11-21T11:32:52;89354.69;;;10.77;52.63
22649;BME280;11491;41.942;24.220;2023-11-21T11:35:26;89388.91;;;11.14;52.26
22649;BME280;11491;41.942;24.220;2023-11-21T11:37:58;89390.00;;;10.86;51.66
22649;BME280;11491;41.942;24.220;2023-11-21T11:40:38;89372.19;;;10.71;52.70
22649;BME280;11491;41.942;24.220;2023-11-21T11:43:06;89376.25;;;10.65;52.99
22649;BME280;11491;41.942;24.220;2023-11-21T11:45:34;89391.81;;;10.59;53.54
22649;BME280;11491;41.942;24.220;2023-11-21T11:48:05;89399.59;;;10.68;53.61
22649;BME280;11491;41.942;24.220;2023-11-21T11:50:32;89408.16;;;10.77;53.93
22649;BME280;11491;41.942;24.220;2023-11-21T11:53:12;89401.09;;;10.65;53.30
22649;BME280;11491;41.942;24.220;2023-11-21T11:55:39;89400.44;;;10.72;53.74
22649;BME280;11491;41.942;24.220;2023-11-21T11:58:06;89400.91;;;10.77;52.89
22649;BME280;11491;41.942;24.220;2023-11-21T12:00:34;89410.63;;;10.86;53.77
22649;BME280;11491;41.942;24.220;2023-11-21T12:03:05;89412.50;;;10.85;53.16
22649;BME280;11491;41.942;24.220;2023-11-21T12:05:33;89418.69;;;10.89;53.51
22649;BME280;11491;41.942;24.220;2023-11-21T12:08:03;89418.41;;;10.94;53.86
22649;BME280;11491;41.942;24.220;2023-11-21T12:10:31;89424.47;;;10.91;54.09
22649;BME280;11491;41.942;24.220;2023-11-21T12:13:00;89421.38;;;10.89;53.42
22649;BME280;11491;41.942;24.220;2023-11-21T12:15:27;89430.06;;;11.06;53.56
22649;BME280;11491;41.942;24.220;2023-11-21T12:17:54;89426.34;;;11.14;53.09
22649;BME280;11491;41.942;24.220;2023-11-21T12:20:24;89415.91;;;11.28;52.95
22649;BME280;11491;41.942;24.220;2023-11-21T12:22:52;89419.72;;;11.54;52.29
22649;BME280;11491;41.942;24.220;2023-11-21T12:25:20;89418.56;;;11.55;52.41
22649;BME280;11491;41.942;24.220;2023-11-21T12:27:48;89419.25;;;11.48;52.75
22649;BME280;11491;41.942;24.220;2023-11-21T12:30:17;89414.97;;;11.43;53.08
22649;BME280;11491;41.942;24.220;2023-11-21T12:32:44;89404.88;;;11.60;52.56
22649;BME280;11491;41.942;24.220;2023-11-21T12:35:12;89399.53;;;11.87;52.14
22649;BME280;11491;41.942;24.220;2023-11-21T12:37:41;89401.94;;;12.25;52.04
22649;BME280;11491;41.942;24.220;2023-11-21T12:40:10;89397.81;;;12.69;50.99
22649;BME280;11491;41.942;24.220;2023-11-21T12:42:39;89396.00;;;12.43;50.43
22649;BME280;11491;41.942;24.220;2023-11-21T12:45:18;89391.88;;;12.15;50.75
22649;BME280;11491;41.942;24.220;2023-11-21T12:47:46;89369.69;;;12.18;51.09
22649;BME280;11491;41.942;24.220;2023-11-21T12:50:14;89378.38;;;12.42;50.69
22649;BME280;11491;41.942;24.220;2023-11-21T12:52:44;89371.63;;;12.55;50.27
22649;BME280;11491;41.942;24.220;2023-11-21T12:55:16;89352.38;;;12.46;50.34
22649;BME280;11491;41.942;24.220;2023-11-21T12:57:44;89353.28;;;12.61;50.48
22649;BME280;11491;41.942;24.220;2023-11-21T13:00:12;89356.63;;;12.50;50.25
22649;BME280;11491;41.942;24.220;2023-11-21T13:02:52;89337.63;;;13.07;49.77
22649;BME280;11491;41.942;24.220;2023-11-21T13:05:26;89355.34;;;13.19;48.56